Flight Track Log - Related Links

Times and Time Zones

All times are in EST time to prevent confusion due to time zone crossing. See the N631TS flight status page for this flight to view local times or setup timezone preferences in your user account.


Time Position Orientation Groundspeed Altitude Reporting Facility
EST Latitude Longitude Course Direction KTS MPH feet Rate Location/Type
Thu 04:06:47 PM 45.5872 -93.9731 91° East 225 259 4,400  Level Minneapolis Center
Thu 04:07:48 PM 45.5428 -93.8942 129° Southeast 258 297 7,500 2,683 Climbing Minneapolis Center
Thu 04:08:50 PM 45.4786 -93.8206 141° Southeast 303 349 9,900 2,758 Climbing Minneapolis Center
Thu 04:09:52 PM 45.4011 -93.7286 140° Southeast 294 338 13,200 2,683 Climbing Minneapolis Center
Thu 04:10:00 PM 45.2996 -93.4130 121° Southeast  Level Estimated
Thu 04:10:53 PM 45.3361 -93.6531 141° Southeast 312 359 15,400  Level Minneapolis Center
Thu 04:11:00 PM 45.2581 -93.3057 115° Southeast  Level Estimated
Thu 04:11:55 PM 45.2831 -93.5517 127° Southeast 322 371 17,600  Level Minneapolis Center
Thu 04:12:57 PM 45.2400 -93.4367 118° Southeast 328 377 19,900 2,032 Climbing Minneapolis Center
Thu 04:13:59 PM 45.1967 -93.3233 118° Southeast 328 377 21,800 1,805 Climbing Minneapolis Center
Thu 04:15:00 PM 45.1536 -93.2103 118° Southeast 325 374 23,600 1,756 Climbing Minneapolis Center
Thu 04:16:02 PM 45.1114 -93.0972 118° Southeast 324 373 25,400 1,742 Climbing Minneapolis Center
Thu 04:17:04 PM 45.0689 -92.9878 119° Southeast 319 367 27,200 1,561 Climbing Minneapolis Center
Thu 04:18:05 PM 45.0192 -92.8558 118° Southeast 316 364 28,600 878 Climbing Minneapolis Center
Thu 04:19:07 PM 44.9750 -92.7394 118° Southeast 330 380 29,000 194 Climbing Minneapolis Center
Thu 04:20:09 PM 44.9253 -92.6097 118° Southeast 364 419 29,000  Level Minneapolis Center
Thu 04:21:11 PM 44.8722 -92.4756 119° Southeast 386 444 29,000  Level Minneapolis Center
Thu 04:22:13 PM 44.8181 -92.3369 119° Southeast 398 458 29,000  Level Minneapolis Center
Thu 04:23:14 PM 44.7622 -92.1964 119° Southeast 407 468 29,000  Level Minneapolis Center
Thu 04:24:16 PM 44.7078 -92.0553 118° Southeast 409 471 29,000  Level Minneapolis Center
Thu 04:25:18 PM 44.6519 -91.9175 120° Southeast 408 470 29,000  Level Minneapolis Center
Thu 04:26:20 PM 44.5872 -91.7489 118° Southeast 409 471 29,000  Level Minneapolis Center
Thu 04:27:22 PM 44.5317 -91.6108 119° Southeast 407 468 29,000  Level Minneapolis Center
Thu 04:28:24 PM 44.4764 -91.4747 120° Southeast 405 466 29,000  Level Minneapolis Center
Thu 04:29:25 PM 44.4206 -91.3381 120° Southeast 405 466 29,000  Level Minneapolis Center
Thu 04:30:27 PM 44.3658 -91.2017 119° Southeast 404 465 29,000  Level Minneapolis Center
Thu 04:31:29 PM 44.3081 -91.0597 120° Southeast 404 465 29,000  Level Minneapolis Center
Thu 04:32:31 PM 44.2542 -90.9250 119° Southeast 401 461 29,000  Level Minneapolis Center
Thu 04:33:33 PM 44.1994 -90.7911 120° Southeast 400 460 29,000  Level Minneapolis Center
Thu 04:34:35 PM 44.1331 -90.6317 120° Southeast 398 458 29,000  Level Minneapolis Center
Thu 04:35:37 PM 44.0850 -90.5150 120° Southeast 399 459 29,000  Level Minneapolis Center
Thu 04:36:39 PM 44.0192 -90.3567 120° Southeast 395 455 29,000  Level Minneapolis Center
Thu 04:37:40 PM 43.9628 -90.2267 121° Southeast 394 453 29,000 -390 Level Minneapolis Center
Thu 04:38:42 PM 43.9069 -90.0933 120° Southeast 399 459 28,200 -919 Descending Minneapolis Center
Thu 04:39:44 PM 43.8475 -89.9531 120° Southeast 417 480 27,100 -1,016 Descending Minneapolis Center
Thu 04:40:46 PM 43.7861 -89.8100 121° Southeast 430 495 26,100 -1,113 Descending Minneapolis Center
Thu 04:41:48 PM 43.7256 -89.6722 121° Southeast 425 489 24,800 -1,887 Descending Minneapolis Center
Thu 04:42:50 PM 43.6567 -89.5128 121° Southeast 412 474 22,200 -2,226 Descending Minneapolis Center
Thu 04:43:52 PM 43.6042 -89.3872 120° Southeast 391 450 20,200 -2,177 Descending Minneapolis Center
Thu 04:44:54 PM 43.5522 -89.2689 121° Southeast 372 428 17,700 -2,177 Descending Minneapolis Center
Thu 04:45:56 PM 43.5028 -89.1539 121° Southeast 358 412 15,700 -1,597 Descending Minneapolis Center
Thu 04:46:58 PM 43.4547 -89.0414 120° Southeast 349 402 14,400 -1,159 Descending Minneapolis Center
Thu 04:48:21 PM 43.3869 -88.8886 121° Southeast 340 391 12,900 -1,076 Descending Chicago Center
Thu 04:49:23 PM 43.3378 -88.7792 122° Southeast 342 394 11,800 -1,161 Descending Chicago Center
Thu 04:50:25 PM 43.2814 -88.6506 121° Southeast 334 384 10,500 -871 Descending Chicago Center
Thu 04:51:27 PM 43.2347 -88.5483 122° Southeast 324 373 10,000 -242 Descending Chicago Center
Thu 04:52:29 PM 43.1903 -88.4469 121° Southeast 319 367 10,000 -581 Level Chicago Center
Thu 04:53:31 PM 43.1442 -88.3436 121° Southeast 319 367 8,800 -1,355 Descending Chicago Center
Thu 04:54:33 PM 43.1078 -88.2217 112° Southeast 305 351 7,200 -871 Descending Chicago Center
Thu 04:55:35 PM 43.1294 -88.1172 74° East 289 333 7,000 -145 Descending Chicago Center
Thu 04:56:37 PM 43.1500 -88.0119 75° East 287 330 6,900 -774 Descending Chicago Center
Thu 04:57:39 PM 43.1461 -87.9197 93° East 253 291 5,400 -1,392 Descending Chicago Center
Thu 04:58:42 PM 43.1108 -87.8594 129° Southeast 239 275 4,000 -1,200 Descending Chicago Center
Thu 04:59:44 PM 43.0594 -87.8767 194° South 205 236 2,900 -1,016 Descending Chicago Center
Thu 05:00:46 PM 43.0119 -87.8833 186° South 171 197 1,900 -629 Descending Chicago Center
Thu 05:01:48 PM 42.9778 -87.8931 192° South 159 183 1,600 -290 Descending Chicago Center

Login

Don't have an account? Register now (free) for customized features, flight alerts, and more!